Time;durP1;ratioP1;P1;durP2;ratioP2;P2;SDS_P1;SDS_P2;PMS_P1;PMS_P2;Temp;Humidity;BMP_temperature;BMP_pressure;BME280_temperature;BME280_humidity;BME280_pressure;Samples;Min_cycle;Max_cycle;Signal;HPM_P1;HPM_P2
2022/05/24 00:01:16;;;;;;;;;;;;;;;15.01;76.39;97394.06;1733475;81;28098;-85
2022/05/24 00:03:42;;;;;;;3.05;1.35;;;;;;;15.01;76.46;97388.30;1734334;81;25959;-85
2022/05/24 00:06:08;;;;;;;2.00;1.42;;;;;;;15.03;76.49;97383.70;1731508;81;28054;-85
2022/05/24 00:08:35;;;;;;;2.10;1.60;;;;;;;14.89;76.46;97382.98;1727832;81;28101;-85
2022/05/24 00:11:02;;;;;;;2.62;1.67;;;;;;;14.92;76.73;97387.13;1733742;81;28088;-85
2022/05/24 00:13:28;;;;;;;2.62;1.45;;;;;;;14.90;76.78;97382.50;1727256;81;28179;-88
2022/05/24 00:15:55;;;;;;;2.65;1.50;;;;;;;14.85;76.79;97382.98;1732290;81;28254;-88
2022/05/24 00:18:29;;;;;;;2.17;1.30;;;;;;;14.91;76.97;97396.01;1731892;81;28080;-88
2022/05/24 00:20:59;;;;;;;1.80;1.40;;;;;;;15.00;77.10;97397.70;1733144;81;28093;-88
2022/05/24 00:23:31;;;;;;;3.77;1.52;;;;;;;15.13;77.30;97395.91;1724922;81;28065;-83
2022/05/24 00:26:01;;;;;;;3.40;1.40;;;;;;;15.13;77.40;97399.38;1732121;81;28058;-85
2022/05/24 00:28:29;;;;;;;2.98;1.75;;;;;;;15.08;77.45;97397.72;1735784;81;28092;-86
2022/05/24 00:30:56;;;;;;;2.77;1.90;;;;;;;15.13;77.66;97391.47;1728772;82;28127;-85
2022/05/24 00:33:25;;;;;;;2.62;1.75;;;;;;;15.21;77.87;97390.67;1727630;82;28179;-83
2022/05/24 00:35:58;;;;;;;3.05;1.82;;;;;;;15.18;77.97;97384.39;1720152;82;28141;-83
2022/05/24 00:38:31;;;;;;;3.60;1.72;;;;;;;15.07;77.92;97381.56;1726854;82;28072;-86
2022/05/24 00:41:07;;;;;;;2.58;1.95;;;;;;;14.98;77.94;97385.17;1728986;82;28054;-84
2022/05/24 00:47:02;;;;;;;3.90;1.67;;;;;;;15.15;78.45;97382.09;1726998;82;28128;-86
2022/05/24 00:49:41;;;;;;;2.52;1.87;;;;;;;15.20;78.62;97379.30;1727702;82;28004;-86
2022/05/24 00:52:20;;;;;;;2.55;1.47;;;;;;;15.09;78.69;97374.34;1721685;82;27987;-82
2022/05/24 00:54:46;;;;;;;1.98;1.50;;;;;;;15.00;78.82;97374.79;1728016;82;28105;-84
2022/05/24 00:57:34;;;;;;;2.85;1.55;;;;;;;14.93;79.02;97363.75;1727790;82;28118;-88
2022/05/24 01:00:13;;;;;;;2.33;1.50;;;;;;;14.86;79.19;97363.56;1728207;82;28176;-88
2022/05/24 01:02:42;;;;;;;2.98;1.42;;;;;;;14.85;79.45;97364.55;1727901;82;28080;-85
2022/05/24 01:05:11;;;;;;;1.57;1.20;;;;;;;14.82;79.69;97360.92;1721953;82;28075;-83
2022/05/24 01:07:38;;;;;;;4.53;1.80;;;;;;;14.85;79.96;97355.81;1728883;82;28205;-83
2022/05/24 01:10:14;;;;;;;1.40;1.30;;;;;;;14.89;80.28;97348.74;1721270;82;28096;-88
2022/05/24 01:12:49;;;;;;;3.85;1.72;;;;;;;15.03;80.61;97349.45;1728732;81;28006;-82
2022/05/24 01:15:17;;;;;;;1.85;1.42;;;;;;;15.19;80.87;97344.70;1727279;82;28131;-83
2022/05/24 01:17:52;;;;;;;1.50;1.40;;;;;;;15.15;80.81;97345.20;1730508;81;28141;-83
2022/05/24 01:20:19;;;;;;;1.47;1.17;;;;;;;15.10;80.87;97341.73;1730467;81;28066;-83
2022/05/24 01:23:10;;;;;;;2.20;1.33;;;;;;;15.03;80.93;97336.77;1724646;82;28027;-85
2022/05/24 01:25:46;;;;;;;2.30;1.50;;;;;;;14.96;81.03;97331.31;1731926;82;28171;-83
2022/05/24 01:28:25;;;;;;;3.00;1.47;;;;;;;14.85;80.99;97338.20;1729533;82;25376;-88
2022/05/24 01:30:53;;;;;;;2.85;1.25;;;;;;;14.80;81.04;97334.40;1734097;81;28072;-84
2022/05/24 01:36:10;;;;;;;1.52;1.20;;;;;;;14.90;81.53;97328.49;1727509;81;28129;-88
2022/05/24 01:38:41;;;;;;;3.08;1.67;;;;;;;14.94;81.79;97323.26;1731485;81;28092;-88
2022/05/24 01:41:08;;;;;;;1.23;1.00;;;;;;;14.88;81.87;97319.95;1732844;81;28080;-88
2022/05/24 01:43:38;;;;;;;2.55;1.30;;;;;;;14.78;81.99;97320.59;1735841;81;28203;-85
2022/05/24 01:46:08;;;;;;;6.00;1.40;;;;;;;14.64;82.11;97312.79;1729180;81;28146;-85
2022/05/24 01:48:43;;;;;;;3.22;1.82;;;;;;;14.59;82.38;97314.59;1741714;81;28088;-86
2022/05/24 01:51:13;;;;;;;2.25;1.50;;;;;;;14.61;82.75;97313.13;1730718;81;28100;-84
2022/05/24 01:53:43;;;;;;;1.80;1.35;;;;;;;14.74;83.15;97312.16;1727345;81;28072;-84
2022/05/24 01:56:13;;;;;;;3.15;1.50;;;;;;;14.76;83.37;97310.69;1729817;81;28096;-83
2022/05/24 01:58:41;;;;;;;1.35;1.25;;;;;;;14.75;83.48;97305.91;1731591;81;28182;-83
2022/05/24 02:01:37;;;;;;;1.57;1.20;;;;;;;14.72;83.61;97310.69;1734204;81;28084;-83
2022/05/24 02:04:09;;;;;;;2.45;1.35;;;;;;;14.72;83.79;97306.73;1716446;81;28107;-88
2022/05/24 02:06:36;;;;;;;1.55;1.12;;;;;;;14.64;83.83;97300.45;1735267;81;28157;-83
2022/05/24 02:09:11;;;;;;;2.95;1.20;;;;;;;14.72;83.96;97301.47;1736161;81;28109;-83
2022/05/24 02:11:48;;;;;;;1.90;1.30;;;;;;;14.74;84.02;97299.48;1735284;81;28104;-84
2022/05/24 02:14:19;;;;;;;1.75;1.20;;;;;;;14.83;84.06;97294.59;1731564;81;28068;-85
2022/05/24 02:16:58;;;;;;;1.22;0.90;;;;;;;14.87;83.83;97288.83;1734901;81;28072;-82
2022/05/24 02:19:28;;;;;;;1.20;0.80;;;;;;;14.90;83.57;97288.48;1722490;81;28104;-83
2022/05/24 02:21:58;;;;;;;1.27;1.20;;;;;;;14.86;83.28;97290.30;1715081;81;28084;-82
2022/05/24 02:24:26;;;;;;;1.50;0.98;;;;;;;14.84;83.09;97284.35;1730605;81;28094;-85
2022/05/24 02:26:58;;;;;;;1.95;1.00;;;;;;;14.85;82.97;97289.47;1693546;83;28447;-85
2022/05/24 02:29:24;;;;;;;1.30;0.90;;;;;;;14.90;82.78;97285.03;1694505;82;28110;-85
2022/05/24 02:31:51;;;;;;;2.67;1.20;;;;;;;14.93;82.58;97277.64;1722143;82;28139;-85
2022/05/24 02:34:20;;;;;;;1.35;1.02;;;;;;;14.94;82.45;97275.84;1715003;82;28102;-88
2022/05/24 02:36:51;;;;;;;1.40;1.00;;;;;;;14.95;82.24;97282.23;1719304;82;28041;-84
2022/05/24 02:39:26;;;;;;;2.25;0.90;;;;;;;15.00;81.96;97277.30;1714921;82;28006;-83
2022/05/24 02:41:52;;;;;;;2.20;1.40;;;;;;;15.05;81.62;97278.95;1722530;82;28153;-88
2022/05/24 02:44:19;;;;;;;2.65;1.00;;;;;;;15.14;81.36;97267.12;1723623;82;28133;-89
2022/05/24 02:46:48;;;;;;;1.65;1.27;;;;;;;15.18;81.11;97269.25;1722127;82;28090;-84
2022/05/24 02:49:15;;;;;;;2.25;1.10;;;;;;;15.19;80.97;97264.81;1721720;82;28071;-86
2022/05/24 02:51:44;;;;;;;1.55;1.07;;;;;;;15.20;80.77;97266.47;1726260;82;28088;-85
2022/05/24 02:54:19;;;;;;;1.82;1.00;;;;;;;15.23;80.49;97272.70;1722326;82;28078;-84
2022/05/24 02:56:52;;;;;;;1.65;1.10;;;;;;;15.25;80.19;97265.47;1720535;82;28076;-84
2022/05/24 02:59:18;;;;;;;1.47;1.02;;;;;;;15.28;80.08;97262.00;1722434;81;28032;-83
2022/05/24 03:01:46;;;;;;;2.02;1.15;;;;;;;15.28;79.81;97262.49;1717424;82;28087;-84
2022/05/24 03:04:12;;;;;;;2.77;1.07;;;;;;;15.34;79.64;97260.03;1721200;82;28133;-88
2022/05/24 03:09:36;;;;;;;2.77;1.07;;;;;;;15.42;79.22;97264.48;1723665;82;28115;-87
2022/05/24 03:14:45;;;;;;;1.42;1.10;;;;;;;15.45;78.84;97266.28;1727662;81;28081;-85
2022/05/24 03:17:11;;;;;;;3.35;1.20;;;;;;;15.47;78.62;97266.13;1724864;82;28053;-84
2022/05/24 03:19:38;;;;;;;2.05;1.02;;;;;;;15.48;78.43;97262.51;1727378;82;28030;-83
2022/05/24 03:22:05;;;;;;;4.20;1.30;;;;;;;15.53;78.31;97265.50;1727500;82;28189;-84
2022/05/24 03:24:31;;;;;;;1.42;0.95;;;;;;;15.56;78.16;97263.00;1717437;82;28434;-83
2022/05/24 03:26:59;;;;;;;2.05;1.30;;;;;;;15.62;77.89;97261.02;1719220;82;28210;-85
2022/05/24 03:29:25;;;;;;;1.20;1.10;;;;;;;15.65;77.65;97259.39;1726810;81;28093;-85
2022/05/24 03:31:52;;;;;;;2.92;1.45;;;;;;;15.69;77.39;97260.69;1722664;82;28029;-83
2022/05/24 03:34:21;;;;;;;1.62;1.10;;;;;;;15.74;77.22;97264.48;1726128;82;28138;-83
2022/05/24 03:36:50;;;;;;;1.77;1.07;;;;;;;15.78;77.08;97270.23;1723719;81;28014;-83
2022/05/24 03:39:17;;;;;;;2.08;1.10;;;;;;;15.71;76.85;97259.52;1726928;82;28067;-86
2022/05/24 03:41:45;;;;;;;2.12;1.10;;;;;;;15.66;76.79;97258.38;1727900;82;28116;-86
2022/05/24 03:44:12;;;;;;;3.17;1.17;;;;;;;15.63;76.75;97262.68;1721248;82;28066;-83
2022/05/24 03:46:38;;;;;;;2.30;1.30;;;;;;;15.67;76.69;97262.17;1728686;82;28047;-83
2022/05/24 03:49:05;;;;;;;3.27;1.20;;;;;;;15.69;76.63;97273.39;1727707;82;28081;-83
2022/05/24 03:51:32;;;;;;;1.62;1.10;;;;;;;15.72;76.59;97278.31;1726147;82;28017;-88
2022/05/24 03:54:00;;;;;;;2.15;1.20;;;;;;;15.74;76.56;97272.88;1723609;82;28079;-88
2022/05/24 03:56:27;;;;;;;3.65;1.32;;;;;;;15.77;76.51;97276.00;1731491;82;28054;-86
2022/05/24 03:58:56;;;;;;;2.08;1.20;;;;;;;15.79;76.46;97285.07;1732038;82;28132;-83
2022/05/24 04:01:26;;;;;;;2.02;1.22;;;;;;;15.83;76.40;97291.65;1727500;82;28165;-83
2022/05/24 04:03:53;;;;;;;2.47;1.30;;;;;;;15.89;76.29;97291.81;1728751;82;28100;-88
2022/05/24 04:06:19;;;;;;;1.30;1.20;;;;;;;15.95;76.18;97286.84;1726554;82;28200;-83
2022/05/24 04:08:45;;;;;;;1.95;1.07;;;;;;;15.95;76.08;97285.04;1729838;82;28093;-83
2022/05/24 04:11:13;;;;;;;2.08;1.20;;;;;;;16.01;76.07;97288.33;1721658;82;28060;-85
2022/05/24 04:13:42;;;;;;;2.60;1.32;;;;;;;16.07;76.04;97290.29;1720938;82;28095;-84
2022/05/24 04:16:09;;;;;;;4.67;1.40;;;;;;;16.04;75.91;97282.69;1727585;82;28103;-83
2022/05/24 04:18:36;;;;;;;2.10;1.27;;;;;;;16.04;75.85;97291.93;1730474;82;28130;-83
2022/05/24 04:21:03;;;;;;;1.90;1.10;;;;;;;16.07;75.80;97302.66;1713520;82;28151;-88
2022/05/24 04:23:41;;;;;;;2.02;1.27;;;;;;;16.08;75.66;97295.91;1725646;82;28110;-84
2022/05/24 04:26:09;;;;;;;3.27;1.32;;;;;;;16.15;75.68;97300.81;1722688;82;27999;-83
2022/05/24 04:28:38;;;;;;;1.30;1.20;;;;;;;16.18;75.75;97301.80;1724439;82;28122;-84
2022/05/24 04:31:04;;;;;;;4.60;1.17;;;;;;;16.25;75.75;97298.83;1723696;81;28076;-87
2022/05/24 04:33:31;;;;;;;1.80;1.22;;;;;;;16.28;75.76;97299.79;1727115;81;28093;-83
2022/05/24 04:35:59;;;;;;;2.40;1.27;;;;;;;16.33;75.78;97304.06;1720166;81;28032;-86
2022/05/24 04:38:25;;;;;;;1.25;0.98;;;;;;;16.37;75.78;97298.42;1731671;81;28123;-86
2022/05/24 04:43:37;;;;;;;4.03;1.32;;;;;;;16.45;75.87;97311.12;1723575;81;28057;-88
2022/05/24 04:46:04;;;;;;;1.77;1.60;;;;;;;16.46;75.80;97311.95;1729805;81;28081;-88
2022/05/24 04:48:31;;;;;;;1.52;1.12;;;;;;;16.47;75.85;97311.78;1730389;81;28032;-88
2022/05/24 04:50:58;;;;;;;2.27;1.30;;;;;;;16.48;75.92;97310.76;1725105;81;28088;-84
2022/05/24 04:53:27;;;;;;;2.83;1.50;;;;;;;16.52;75.93;97308.13;1725766;81;28481;-88
2022/05/24 04:55:55;;;;;;;3.77;1.40;;;;;;;16.53;75.93;97308.95;1736658;81;28144;-83
2022/05/24 04:58:24;;;;;;;2.40;1.10;;;;;;;16.51;75.90;97309.61;1723803;81;28064;-82
2022/05/24 05:00:51;;;;;;;4.22;1.30;;;;;;;16.50;75.86;97319.34;1725455;81;28085;-86
2022/05/24 05:03:20;;;;;;;2.83;1.40;;;;;;;16.51;76.04;97324.14;1732132;82;28164;-85
2022/05/24 05:05:49;;;;;;;3.00;1.22;;;;;;;16.51;76.12;97324.96;1734951;81;28066;-85
2022/05/24 05:08:16;;;;;;;2.22;1.32;;;;;;;16.52;76.21;97325.79;1735705;81;28088;-86
2022/05/24 05:10:42;;;;;;;2.37;1.30;;;;;;;16.54;76.25;97334.34;1727392;81;28025;-83
2022/05/24 05:13:08;;;;;;;4.17;1.70;;;;;;;16.55;76.21;97332.03;1680438;84;28205;-84
2022/05/24 05:15:37;;;;;;;6.22;1.62;;;;;;;16.58;76.28;97342.27;1678382;84;28091;-88
2022/05/24 05:18:06;;;;;;;7.90;1.75;;;;;;;16.61;76.40;97344.09;1677759;84;28225;-88
2022/05/24 05:20:37;;;;;;;4.87;1.67;;;;;;;16.59;76.36;97346.57;1679887;84;28110;-88
2022/05/24 05:23:09;;;;;;;3.62;1.50;;;;;;;16.60;76.42;97336.34;1726948;81;28100;-84
2022/05/24 05:25:43;;;;;;;2.08;1.25;;;;;;;16.63;76.57;97337.33;1734906;81;28055;-83
2022/05/24 05:28:09;;;;;;;2.62;1.30;;;;;;;16.64;76.49;97338.45;1722579;81;27997;-83
2022/05/24 05:33:22;;;;;;;5.33;1.70;;;;;;;16.68;76.63;97338.47;1731712;81;28108;-83
2022/05/24 05:35:49;;;;;;;4.33;1.75;;;;;;;16.72;76.65;97344.22;1726661;81;28068;-88
2022/05/24 05:38:22;;;;;;;2.77;1.42;;;;;;;16.75;76.86;97347.03;1727576;81;28065;-85
2022/05/24 05:40:54;;;;;;;2.40;1.42;;;;;;;16.78;77.25;97347.50;1728495;81;28504;-84
2022/05/24 05:43:20;;;;;;;2.22;1.32;;;;;;;16.79;77.75;97358.40;1729264;81;28145;-86
2022/05/24 05:45:54;;;;;;;3.67;1.77;;;;;;;16.77;78.23;97354.27;1728023;81;27989;-84
2022/05/24 05:48:21;;;;;;;3.37;1.52;;;;;;;16.80;78.56;97360.55;1727090;81;28185;-84
2022/05/24 05:50:49;;;;;;;4.00;1.60;;;;;;;16.81;78.77;97375.38;1731398;81;28072;-84
2022/05/24 05:53:24;;;;;;;3.65;1.40;;;;;;;16.86;79.08;97379.65;1733376;81;28091;-84
2022/05/24 05:55:51;;;;;;;2.95;1.55;;;;;;;16.95;79.42;97380.78;1731491;81;28220;-88
2022/05/24 05:58:17;;;;;;;2.08;1.30;;;;;;;17.00;79.51;97381.09;1734758;81;28079;-86
2022/05/24 06:00:48;;;;;;;3.67;1.98;;;;;;;17.01;79.52;97377.45;1733051;81;28073;-86
2022/05/24 06:03:13;;;;;;;4.47;1.70;;;;;;;16.97;79.61;97380.09;1725158;81;28115;-86
2022/05/24 06:05:42;;;;;;;5.28;1.52;;;;;;;17.00;79.91;97379.77;1730269;81;28001;-86
2022/05/24 06:08:08;;;;;;;2.70;1.85;;;;;;;17.07;80.26;97385.98;1728361;81;28018;-86
2022/05/24 06:10:37;;;;;;;2.25;1.40;;;;;;;17.09;80.31;97389.78;1722739;81;28066;-84
2022/05/24 06:13:04;;;;;;;2.02;1.30;;;;;;;17.07;80.26;97397.09;1728026;81;28136;-84
2022/05/24 06:15:32;;;;;;;2.15;1.30;;;;;;;17.10;80.39;97390.11;1729880;81;28194;-86
2022/05/24 06:17:59;;;;;;;3.83;1.42;;;;;;;17.11;80.54;97391.77;1728396;81;28102;-85
2022/05/24 06:20:29;;;;;;;3.00;1.62;;;;;;;17.09;80.61;97390.61;1730037;81;28073;-83
2022/05/24 06:22:57;;;;;;;3.70;1.40;;;;;;;17.13;80.68;97391.08;1730482;81;28133;-83
2022/05/24 06:25:30;;;;;;;3.92;1.32;;;;;;;17.11;80.46;97393.91;1724806;81;28080;-83
2022/05/24 06:27:59;;;;;;;2.55;1.50;;;;;;;17.13;80.54;97392.40;1730796;81;28092;-83
2022/05/24 06:30:26;;;;;;;6.37;1.60;;;;;;;17.17;80.48;97393.72;1727735;81;28206;-83
2022/05/24 06:32:53;;;;;;;2.22;1.45;;;;;;;17.20;80.70;97400.47;1732420;81;28109;-83
2022/05/24 06:35:20;;;;;;;2.02;1.20;;;;;;;17.21;80.87;97396.83;1722181;81;28001;-83
2022/05/24 06:37:48;;;;;;;2.25;1.30;;;;;;;17.27;81.01;97400.11;1703763;81;28172;-85
2022/05/24 06:40:17;;;;;;;2.92;1.22;;;;;;;17.32;80.95;97401.73;1730234;81;28073;-84
2022/05/24 06:42:46;;;;;;;1.95;1.30;;;;;;;17.33;80.72;97408.17;1734049;81;28076;-85
2022/05/24 06:45:13;;;;;;;3.60;1.35;;;;;;;17.27;80.52;97403.58;1730166;81;28082;-83
2022/05/24 06:47:40;;;;;;;2.98;2.00;;;;;;;17.26;80.32;97403.74;1728893;81;27997;-83
2022/05/24 06:50:08;;;;;;;2.47;1.20;;;;;;;17.29;80.26;97406.05;1731101;81;28088;-83
2022/05/24 06:52:35;;;;;;;3.33;1.60;;;;;;;17.28;80.23;97400.44;1729034;81;28095;-83
2022/05/24 06:55:01;;;;;;;2.40;1.40;;;;;;;17.33;80.25;97408.67;1731625;81;28137;-88
2022/05/24 06:57:29;;;;;;;3.67;2.22;;;;;;;17.39;80.19;97408.80;1726192;81;28058;-82
2022/05/24 07:02:40;;;;;;;3.05;1.25;;;;;;;17.45;79.88;97406.78;1727809;81;28084;-84
2022/05/24 07:05:19;;;;;;;7.33;1.47;;;;;;;17.48;79.68;97400.30;1724105;81;28063;-88
2022/05/24 07:07:45;;;;;;;5.10;1.82;;;;;;;17.48;79.60;97402.95;1731138;81;28064;-88
2022/05/24 07:10:17;;;;;;;2.08;1.10;;;;;;;17.48;79.52;97400.30;1734304;81;27995;-88
2022/05/24 07:12:47;;;;;;;1.87;1.30;;;;;;;17.49;79.27;97402.78;1730717;81;28086;-86
2022/05/24 07:15:13;;;;;;;3.83;1.40;;;;;;;17.51;79.07;97400.77;1732465;81;28086;-84
2022/05/24 07:17:45;;;;;;;6.67;1.60;;;;;;;17.57;79.08;97412.47;1725387;81;28025;-88
2022/05/24 07:20:12;;;;;;;2.62;1.40;;;;;;;17.59;79.12;97411.80;1723540;81;28041;-88
2022/05/24 07:22:39;;;;;;;2.65;1.50;;;;;;;17.61;79.25;97408.52;1731640;81;28204;-88
2022/05/24 07:25:09;;;;;;;2.95;1.35;;;;;;;17.64;79.23;97406.83;1734393;81;28093;-89
2022/05/24 07:27:36;;;;;;;2.95;1.37;;;;;;;17.66;79.22;97407.50;1733876;81;28085;-86
2022/05/24 07:30:04;;;;;;;5.28;1.30;;;;;;;17.67;79.27;97410.97;1702793;83;28169;-84
2022/05/24 07:32:31;;;;;;;2.12;1.57;;;;;;;17.70;79.40;97409.28;1691180;83;28099;-84
2022/05/24 07:35:01;;;;;;;2.42;1.32;;;;;;;17.77;79.47;97407.08;1687371;83;28208;-83
2022/05/24 07:37:28;;;;;;;2.72;1.50;;;;;;;17.85;79.52;97404.85;1737196;81;28115;-85
2022/05/24 07:48:05;;;;;;;2.47;1.30;;;;;;;17.88;79.33;97403.19;1735498;81;28187;-84
2022/05/24 07:50:32;;;;;;;2.40;1.40;;;;;;;17.89;79.25;97409.61;1738270;81;28080;-84
2022/05/24 07:52:58;;;;;;;2.70;1.42;;;;;;;17.89;79.36;97405.64;1737373;81;28083;-84
2022/05/24 07:55:26;;;;;;;3.08;1.60;;;;;;;17.83;79.28;97410.84;1735735;81;28066;-84
2022/05/24 07:57:52;;;;;;;3.15;1.32;;;;;;;17.81;79.39;97414.98;1732519;81;28002;-86
2022/05/24 08:00:19;;;;;;;2.22;1.50;;;;;;;17.84;79.52;97411.14;1739365;81;28110;-86
2022/05/24 08:02:52;;;;;;;2.55;1.50;;;;;;;17.86;79.61;97407.33;1741053;81;28073;-88
2022/05/24 08:05:20;;;;;;;1.57;1.20;;;;;;;17.89;79.72;97417.55;1735975;81;28531;-88
2022/05/24 08:07:49;;;;;;;4.75;1.70;;;;;;;17.92;79.72;97408.44;1737970;81;28098;-88
2022/05/24 08:10:17;;;;;;;3.08;1.67;;;;;;;17.96;79.82;97418.98;1731573;81;28118;-88
2022/05/24 08:12:44;;;;;;;2.33;1.60;;;;;;;18.03;79.93;97415.96;1738663;81;28074;-84
2022/05/24 08:15:13;;;;;;;4.30;2.05;;;;;;;18.04;79.88;97415.47;1735193;81;28032;-83
2022/05/24 08:17:41;;;;;;;2.17;1.57;;;;;;;18.02;79.62;97420.10;1738400;81;28001;-83
2022/05/24 08:20:10;;;;;;;5.05;1.60;;;;;;;17.97;79.50;97420.64;1733912;81;28157;-83
2022/05/24 08:22:40;;;;;;;4.03;1.50;;;;;;;17.90;79.51;97419.70;1734933;81;28093;-83
2022/05/24 08:25:08;;;;;;;4.22;1.70;;;;;;;17.88;79.60;97420.39;1733091;81;28058;-86
2022/05/24 08:27:35;;;;;;;3.47;1.50;;;;;;;17.88;79.61;97423.05;1738913;81;28104;-86
2022/05/24 08:30:03;;;;;;;1.98;1.50;;;;;;;17.93;79.83;97425.98;1737642;81;28117;-86
2022/05/24 08:32:30;;;;;;;3.20;1.42;;;;;;;17.94;79.95;97434.25;1721743;81;28215;-85
2022/05/24 08:34:56;;;;;;;2.83;1.60;;;;;;;17.91;79.87;97431.44;1731775;81;28100;-84
2022/05/24 08:37:22;;;;;;;1.62;1.40;;;;;;;17.93;79.95;97439.22;1729943;81;28023;-85
2022/05/24 08:39:49;;;;;;;2.30;1.65;;;;;;;17.96;80.17;97433.55;1719834;82;28080;-86
2022/05/24 08:42:38;;;;;;;8.13;1.77;;;;;;;17.94;80.36;97426.30;1735879;81;28086;-86
2022/05/24 08:50:44;;;;;;;2.65;1.70;;;;;;;18.02;81.01;97435.98;1728553;81;28035;-86
2022/05/24 08:53:14;;;;;;;1.70;1.30;;;;;;;18.05;81.11;97436.48;1730794;81;28179;-84
2022/05/24 08:55:43;;;;;;;3.30;1.42;;;;;;;18.05;81.20;97429.03;1726559;82;28039;-84
2022/05/24 08:58:13;;;;;;;2.05;1.50;;;;;;;18.05;81.16;97430.36;1729823;81;28061;-84
2022/05/24 09:00:41;;;;;;;2.33;2.00;;;;;;;18.01;80.98;97429.87;1720884;82;28108;-84
2022/05/24 09:03:09;;;;;;;5.97;1.87;;;;;;;18.02;81.05;97432.84;1733057;81;28084;-84
2022/05/24 09:05:45;;;;;;;5.75;2.20;;;;;;;18.03;81.03;97429.20;1722529;82;28075;-83
2022/05/24 09:08:27;;;;;;;6.80;3.25;;;;;;;18.04;81.19;97427.38;1723162;82;28010;-83
2022/05/24 09:10:59;;;;;;;6.55;2.90;;;;;;;18.04;81.18;97433.50;1681424;82;28178;-86
2022/05/24 09:13:41;;;;;;;4.33;2.22;;;;;;;18.02;81.23;97437.31;1727001;81;28068;-83
2022/05/24 09:16:15;;;;;;;6.22;2.62;;;;;;;18.01;81.32;97436.98;1721153;82;28084;-83
2022/05/24 09:18:57;;;;;;;3.17;2.20;;;;;;;18.02;81.39;97434.66;1732022;81;27995;-83
2022/05/24 09:21:32;;;;;;;5.55;2.10;;;;;;;18.02;81.36;97433.34;1724109;81;28139;-89
2022/05/24 09:24:23;;;;;;;3.08;1.82;;;;;;;17.97;81.44;97433.38;1733847;81;28101;-88
2022/05/24 09:27:15;;;;;;;4.35;1.82;;;;;;;17.94;81.56;97424.98;1729948;82;28029;-88
2022/05/24 09:30:04;;;;;;;4.75;2.12;;;;;;;17.96;81.91;97434.38;1731684;81;27998;-84
2022/05/24 09:32:40;;;;;;;11.15;4.67;;;;;;;18.04;82.49;97434.00;1720436;81;28095;-89
2022/05/24 09:35:13;;;;;;;12.25;4.70;;;;;;;18.08;82.91;97439.25;1728124;81;28111;-89
2022/05/24 09:37:42;;;;;;;12.58;4.45;;;;;;;18.10;83.36;97440.73;1728536;81;28103;-84
2022/05/24 09:40:23;;;;;;;10.20;4.42;;;;;;;18.14;84.08;97443.34;1727217;81;28105;-86
2022/05/24 09:42:52;;;;;;;9.53;3.70;;;;;;;18.18;84.37;97443.30;1730526;81;28169;-86
2022/05/24 09:45:27;;;;;;;6.70;3.75;;;;;;;18.30;85.05;97440.55;1723198;81;28013;-88
2022/05/24 09:47:58;;;;;;;8.18;3.60;;;;;;;18.37;85.26;97440.66;1726486;81;28174;-83
2022/05/24 09:50:39;;;;;;;5.97;1.87;;;;;;;18.45;85.51;97442.38;1734517;81;28078;-82
2022/05/24 09:53:17;;;;;;;5.00;2.30;;;;;;;18.52;85.69;97437.52;1731237;81;49925;-83
2022/05/24 09:56:01;;;;;;;8.33;2.20;;;;;;;18.72;86.05;97441.30;1726510;81;28102;-83
2022/05/24 09:58:53;;;;;;;1.77;1.32;;;;;;;18.87;86.29;97439.17;1724193;81;28084;-83
2022/05/24 10:01:43;;;;;;;2.05;1.42;;;;;;;19.09;86.72;97432.41;1732242;81;28094;-83
2022/05/24 10:04:13;;;;;;;4.58;1.72;;;;;;;19.21;86.78;97434.09;1734553;81;28071;-86
2022/05/24 10:06:42;;;;;;;2.52;1.40;;;;;;;19.26;86.15;97428.22;1728857;81;28077;-84
2022/05/24 10:09:24;;;;;;;2.62;1.42;;;;;;;19.32;85.84;97426.16;1728425;81;28133;-84
2022/05/24 10:12:03;;;;;;;3.77;1.90;;;;;;;19.40;85.65;97430.86;1733825;81;28118;-89
2022/05/24 10:14:41;;;;;;;2.85;1.32;;;;;;;19.51;85.34;97434.89;1728393;81;28053;-84
2022/05/24 10:17:14;;;;;;;5.97;1.70;;;;;;;19.63;85.29;97438.70;1727949;81;28121;-84
2022/05/24 10:20:16;;;;;;;2.77;1.57;;;;;;;19.78;85.25;97435.98;1729845;81;28119;-83
2022/05/24 10:23:01;;;;;;;1.65;1.42;;;;;;;19.90;85.05;97435.80;1729541;81;28088;-89
2022/05/24 10:25:35;;;;;;;3.17;1.55;;;;;;;20.05;84.79;97437.88;1733989;81;27991;-85
2022/05/24 10:28:05;;;;;;;3.72;1.60;;;;;;;20.22;84.85;97450.39;1731500;81;28039;-84
2022/05/24 10:30:35;;;;;;;2.20;1.50;;;;;;;20.33;84.92;97446.74;1725568;81;28048;-84
2022/05/24 10:39:28;;;;;;;3.35;1.80;;;;;;;20.50;84.01;97439.81;1729929;81;28072;-84
2022/05/24 10:42:07;;;;;;;4.12;1.87;;;;;;;20.54;83.46;97444.54;1729741;81;28066;-84
2022/05/24 10:44:57;;;;;;;2.92;1.75;;;;;;;20.66;83.43;97439.00;1729118;81;28072;-84
2022/05/24 10:47:45;;;;;;;2.25;1.30;;;;;;;20.74;83.23;97430.03;1691955;83;28151;-84
2022/05/24 10:50:34;;;;;;;2.90;1.70;;;;;;;20.80;83.11;97431.91;1732110;81;28095;-83
2022/05/24 10:53:13;;;;;;;2.72;1.57;;;;;;;20.95;82.92;97427.82;1730932;81;28157;-89
2022/05/24 10:55:57;;;;;;;1.80;1.60;;;;;;;21.13;82.85;97422.27;1727376;81;28016;-86
2022/05/24 10:58:20;;;;;;;;;;;;;;;21.17;82.39;97419.55;1733441;81;79315;-84
2022/05/24 11:00:53;;;;;;;2.35;1.80;;;;;;;21.25;82.00;97414.06;1729064;81;186184;-86
2022/05/24 11:03:27;;;;;;;4.42;1.80;;;;;;;21.31;81.61;97413.78;1733684;81;28001;-84
2022/05/24 11:06:00;;;;;;;3.52;1.70;;;;;;;21.41;81.73;97413.39;1728628;81;28130;-84
2022/05/24 11:08:46;;;;;;;4.47;1.60;;;;;;;21.55;81.46;97408.41;1730420;81;28090;-84
2022/05/24 11:11:39;;;;;;;3.85;1.70;;;;;;;21.61;80.88;97413.75;1733736;81;28182;-89
2022/05/24 11:14:35;;;;;;;2.42;1.90;;;;;;;21.65;80.69;97409.69;1730110;81;28076;-89
2022/05/24 11:17:12;;;;;;;5.55;1.70;;;;;;;21.68;80.54;97408.45;1663645;85;28020;-85
2022/05/24 11:19:49;;;;;;;2.98;1.70;;;;;;;21.75;80.58;97414.61;1693600;83;28076;-84
2022/05/24 11:22:20;;;;;;;4.97;1.87;;;;;;;21.87;80.68;97414.33;1723685;81;28071;-86
2022/05/24 11:24:50;;;;;;;3.00;1.85;;;;;;;21.97;80.70;97418.77;1728784;81;28074;-89
2022/05/24 11:27:19;;;;;;;3.55;1.77;;;;;;;22.02;80.09;97424.31;1731717;81;28098;-84
2022/05/24 11:30:02;;;;;;;3.15;1.80;;;;;;;22.07;79.76;97423.19;1734979;81;28100;-84
2022/05/24 11:32:41;;;;;;;2.22;1.80;;;;;;;22.19;79.82;97425.24;1701870;81;28021;-84
2022/05/24 11:35:20;;;;;;;4.00;2.30;;;;;;;22.26;80.03;97427.38;1708932;82;28144;-84
2022/05/24 11:37:51;;;;;;;3.08;1.85;;;;;;;22.30;79.79;97422.78;1712813;82;28138;-89
2022/05/24 11:40:56;;;;;;;2.98;1.80;;;;;;;22.36;79.44;97425.97;1718149;82;28114;-84
2022/05/24 11:43:44;;;;;;;3.72;2.15;;;;;;;22.45;79.44;97423.89;1708689;82;28098;-84
2022/05/24 11:46:41;;;;;;;4.58;1.70;;;;;;;22.38;79.00;97427.06;1715705;82;28005;-83
2022/05/24 11:49:06;;;;;;;3.67;1.90;;;;;;;22.42;78.63;97425.66;1708089;82;28120;-89
2022/05/24 11:51:52;;;;;;;5.78;1.90;;;;;;;22.50;78.61;97428.09;1715106;82;28086;-83
2022/05/24 11:54:23;;;;;;;4.15;1.70;;;;;;;22.54;78.86;97426.13;1722350;82;28090;-84
2022/05/24 11:57:05;;;;;;;;;;;;;;;22.59;78.49;97428.17;1720203;82;28109;-89
2022/05/24 11:59:48;;;;;;;3.25;1.60;;;;;;;22.64;78.26;97428.38;1721086;82;24448;-89
2022/05/24 12:02:32;;;;;;;3.95;1.90;;;;;;;22.65;77.97;97416.68;1712283;82;28113;-89
2022/05/24 12:07:55;;;;;;;4.90;1.60;;;;;;;22.75;77.57;97417.09;1706638;82;28126;-86
2022/05/24 12:10:25;;;;;;;2.30;1.90;;;;;;;22.81;77.65;97410.93;1713816;82;28140;-86
2022/05/24 12:13:05;;;;;;;3.37;1.95;;;;;;;22.84;77.80;97421.20;1721107;82;28096;-84
2022/05/24 12:15:43;;;;;;;3.42;1.62;;;;;;;22.84;77.62;97413.70;1711404;82;28149;-84
2022/05/24 12:18:13;;;;;;;2.50;1.67;;;;;;;22.80;77.42;97419.16;1706520;82;28105;-84
2022/05/24 12:20:43;;;;;;;3.47;1.95;;;;;;;22.72;77.03;97418.86;1713379;82;28075;-86
2022/05/24 12:23:15;;;;;;;3.72;2.05;;;;;;;22.73;76.96;97415.17;1711948;82;28152;-89
2022/05/24 12:26:04;;;;;;;5.30;1.82;;;;;;;22.75;76.82;97418.43;1717037;82;28154;-86
2022/05/24 12:28:39;;;;;;;3.62;1.95;;;;;;;22.73;76.62;97424.51;1713240;82;27999;-87
2022/05/24 12:31:17;;;;;;;4.00;2.17;;;;;;;22.68;76.47;97425.62;1711193;82;28088;-84
2022/05/24 12:34:01;;;;;;;3.25;1.92;;;;;;;22.75;76.90;97422.43;1721701;82;28103;-84
2022/05/24 12:36:40;;;;;;;3.08;2.12;;;;;;;22.83;77.19;97421.40;1717394;82;28067;-83
2022/05/24 12:39:16;;;;;;;2.95;2.02;;;;;;;22.78;77.08;97419.88;1694937;82;28174;-84